sensor_id;sensor_type;location;lat;lon;timestamp;P1;durP1;ratioP1;P2;durP2;ratioP2
70477;SDS011;57956;53.362;-1.518;2023-10-13T00:02:06;8.93;;;2.78;;
70477;SDS011;57956;53.362;-1.518;2023-10-13T00:04:32;12.25;;;5.22;;
70477;SDS011;57956;53.362;-1.518;2023-10-13T00:07:03;11.57;;;3.63;;
70477;SDS011;57956;53.362;-1.518;2023-10-13T00:09:34;12.93;;;4.20;;
70477;SDS011;57956;53.362;-1.518;2023-10-13T00:12:05;12.32;;;3.72;;
70477;SDS011;57956;53.362;-1.518;2023-10-13T00:14:38;10.52;;;3.97;;
70477;SDS011;57956;53.362;-1.518;2023-10-13T00:17:04;12.70;;;3.50;;
70477;SDS011;57956;53.362;-1.518;2023-10-13T00:19:30;10.65;;;3.22;;
70477;SDS011;57956;53.362;-1.518;2023-10-13T00:22:12;8.88;;;2.63;;
70477;SDS011;57956;53.362;-1.518;2023-10-13T00:24:39;9.93;;;3.20;;
70477;SDS011;57956;53.362;-1.518;2023-10-13T00:27:16;7.78;;;2.30;;
70477;SDS011;57956;53.362;-1.518;2023-10-13T00:32:46;9.02;;;2.83;;
70477;SDS011;57956;53.362;-1.518;2023-10-13T00:35:16;8.05;;;2.95;;
70477;SDS011;57956;53.362;-1.518;2023-10-13T00:37:51;5.90;;;2.10;;
70477;SDS011;57956;53.362;-1.518;2023-10-13T00:40:29;9.63;;;2.50;;
70477;SDS011;57956;53.362;-1.518;2023-10-13T00:42:54;8.13;;;2.60;;
70477;SDS011;57956;53.362;-1.518;2023-10-13T00:45:20;8.90;;;2.57;;
70477;SDS011;57956;53.362;-1.518;2023-10-13T00:47:45;9.03;;;3.03;;
70477;SDS011;57956;53.362;-1.518;2023-10-13T00:50:22;10.20;;;3.35;;
70477;SDS011;57956;53.362;-1.518;2023-10-13T00:52:49;7.57;;;2.95;;
70477;SDS011;57956;53.362;-1.518;2023-10-13T00:55:15;8.77;;;2.00;;
70477;SDS011;57956;53.362;-1.518;2023-10-13T00:57:42;8.15;;;2.35;;
70477;SDS011;57956;53.362;-1.518;2023-10-13T01:00:08;7.73;;;1.67;;
70477;SDS011;57956;53.362;-1.518;2023-10-13T01:02:47;7.13;;;1.98;;
70477;SDS011;57956;53.362;-1.518;2023-10-13T01:05:20;6.35;;;2.28;;
70477;SDS011;57956;53.362;-1.518;2023-10-13T01:07:49;5.20;;;1.70;;
70477;SDS011;57956;53.362;-1.518;2023-10-13T01:10:18;7.25;;;1.58;;
70477;SDS011;57956;53.362;-1.518;2023-10-13T01:12:44;5.43;;;1.40;;
70477;SDS011;57956;53.362;-1.518;2023-10-13T01:15:11;5.85;;;1.27;;
70477;SDS011;57956;53.362;-1.518;2023-10-13T01:17:38;5.73;;;1.50;;
70477;SDS011;57956;53.362;-1.518;2023-10-13T01:20:03;4.83;;;1.00;;
70477;SDS011;57956;53.362;-1.518;2023-10-13T01:22:31;5.77;;;1.20;;
70477;SDS011;57956;53.362;-1.518;2023-10-13T01:24:57;4.13;;;1.13;;
70477;SDS011;57956;53.362;-1.518;2023-10-13T01:27:30;4.63;;;0.80;;
70477;SDS011;57956;53.362;-1.518;2023-10-13T01:29:55;4.60;;;1.00;;
70477;SDS011;57956;53.362;-1.518;2023-10-13T01:32:30;2.83;;;0.40;;
70477;SDS011;57956;53.362;-1.518;2023-10-13T01:34:56;2.90;;;0.50;;
70477;SDS011;57956;53.362;-1.518;2023-10-13T01:37:22;2.75;;;0.55;;
70477;SDS011;57956;53.362;-1.518;2023-10-13T01:39:48;2.90;;;0.40;;
70477;SDS011;57956;53.362;-1.518;2023-10-13T01:42:16;2.28;;;0.32;;
70477;SDS011;57956;53.362;-1.518;2023-10-13T01:44:45;2.17;;;0.38;;
70477;SDS011;57956;53.362;-1.518;2023-10-13T01:47:10;2.00;;;0.30;;
70477;SDS011;57956;53.362;-1.518;2023-10-13T01:49:37;3.63;;;0.40;;
70477;SDS011;57956;53.362;-1.518;2023-10-13T01:52:12;2.78;;;0.70;;
70477;SDS011;57956;53.362;-1.518;2023-10-13T01:54:40;2.65;;;0.50;;
70477;SDS011;57956;53.362;-1.518;2023-10-13T01:57:09;2.73;;;0.60;;
70477;SDS011;57956;53.362;-1.518;2023-10-13T01:59:39;2.97;;;0.55;;
70477;SDS011;57956;53.362;-1.518;2023-10-13T02:02:11;5.95;;;0.70;;
70477;SDS011;57956;53.362;-1.518;2023-10-13T02:04:40;3.27;;;0.73;;
70477;SDS011;57956;53.362;-1.518;2023-10-13T02:07:20;4.22;;;1.00;;
70477;SDS011;57956;53.362;-1.518;2023-10-13T02:09:45;3.30;;;0.97;;
70477;SDS011;57956;53.362;-1.518;2023-10-13T02:12:10;4.78;;;1.30;;
70477;SDS011;57956;53.362;-1.518;2023-10-13T02:14:36;4.10;;;1.23;;
70477;SDS011;57956;53.362;-1.518;2023-10-13T02:17:04;3.92;;;0.80;;
70477;SDS011;57956;53.362;-1.518;2023-10-13T02:19:39;3.70;;;1.00;;
70477;SDS011;57956;53.362;-1.518;2023-10-13T02:22:08;3.95;;;0.90;;
70477;SDS011;57956;53.362;-1.518;2023-10-13T02:24:35;3.88;;;0.93;;
70477;SDS011;57956;53.362;-1.518;2023-10-13T02:27:04;3.97;;;1.00;;
70477;SDS011;57956;53.362;-1.518;2023-10-13T02:29:34;4.07;;;1.00;;
70477;SDS011;57956;53.362;-1.518;2023-10-13T02:32:04;3.93;;;1.00;;
70477;SDS011;57956;53.362;-1.518;2023-10-13T02:34:30;5.40;;;1.10;;
70477;SDS011;57956;53.362;-1.518;2023-10-13T02:36:56;4.80;;;1.27;;
70477;SDS011;57956;53.362;-1.518;2023-10-13T02:39:22;3.67;;;0.80;;
70477;SDS011;57956;53.362;-1.518;2023-10-13T02:41:55;3.20;;;0.88;;
70477;SDS011;57956;53.362;-1.518;2023-10-13T02:44:21;3.80;;;0.90;;
70477;SDS011;57956;53.362;-1.518;2023-10-13T02:46:55;3.67;;;0.65;;
70477;SDS011;57956;53.362;-1.518;2023-10-13T02:49:24;3.55;;;0.95;;
70477;SDS011;57956;53.362;-1.518;2023-10-13T02:51:51;3.57;;;0.80;;
70477;SDS011;57956;53.362;-1.518;2023-10-13T02:54:18;3.60;;;0.90;;
70477;SDS011;57956;53.362;-1.518;2023-10-13T02:56:43;3.53;;;0.60;;
70477;SDS011;57956;53.362;-1.518;2023-10-13T02:59:28;7.07;;;0.80;;
70477;SDS011;57956;53.362;-1.518;2023-10-13T03:02:03;3.25;;;0.80;;
70477;SDS011;57956;53.362;-1.518;2023-10-13T03:04:52;2.83;;;0.65;;
70477;SDS011;57956;53.362;-1.518;2023-10-13T03:07:17;4.22;;;0.85;;
70477;SDS011;57956;53.362;-1.518;2023-10-13T03:09:49;3.70;;;0.65;;
70477;SDS011;57956;53.362;-1.518;2023-10-13T03:12:17;3.53;;;0.70;;
70477;SDS011;57956;53.362;-1.518;2023-10-13T03:14:43;3.80;;;0.88;;
70477;SDS011;57956;53.362;-1.518;2023-10-13T03:17:14;3.38;;;0.75;;
70477;SDS011;57956;53.362;-1.518;2023-10-13T03:19:45;3.88;;;0.95;;
70477;SDS011;57956;53.362;-1.518;2023-10-13T03:22:17;4.43;;;1.00;;
70477;SDS011;57956;53.362;-1.518;2023-10-13T03:24:45;3.97;;;0.90;;
70477;SDS011;57956;53.362;-1.518;2023-10-13T03:27:11;3.78;;;0.90;;
70477;SDS011;57956;53.362;-1.518;2023-10-13T03:29:40;4.13;;;0.93;;
70477;SDS011;57956;53.362;-1.518;2023-10-13T03:32:08;4.22;;;1.02;;
70477;SDS011;57956;53.362;-1.518;2023-10-13T03:34:36;3.33;;;0.85;;
70477;SDS011;57956;53.362;-1.518;2023-10-13T03:37:05;3.73;;;0.97;;
70477;SDS011;57956;53.362;-1.518;2023-10-13T03:39:38;3.53;;;0.90;;
70477;SDS011;57956;53.362;-1.518;2023-10-13T03:42:03;5.17;;;1.30;;
70477;SDS011;57956;53.362;-1.518;2023-10-13T03:44:30;3.30;;;0.77;;
70477;SDS011;57956;53.362;-1.518;2023-10-13T03:46:56;5.07;;;1.10;;
70477;SDS011;57956;53.362;-1.518;2023-10-13T03:49:21;5.10;;;1.30;;
70477;SDS011;57956;53.362;-1.518;2023-10-13T03:51:49;4.47;;;1.17;;
70477;SDS011;57956;53.362;-1.518;2023-10-13T03:54:16;6.07;;;1.60;;
70477;SDS011;57956;53.362;-1.518;2023-10-13T03:56:42;7.97;;;1.80;;
70477;SDS011;57956;53.362;-1.518;2023-10-13T03:59:09;8.13;;;1.90;;
70477;SDS011;57956;53.362;-1.518;2023-10-13T04:01:41;7.63;;;1.65;;
70477;SDS011;57956;53.362;-1.518;2023-10-13T04:04:12;9.60;;;1.90;;
70477;SDS011;57956;53.362;-1.518;2023-10-13T04:06:39;4.47;;;1.23;;
70477;SDS011;57956;53.362;-1.518;2023-10-13T04:09:14;4.00;;;1.00;;
70477;SDS011;57956;53.362;-1.518;2023-10-13T04:11:57;6.03;;;1.48;;
70477;SDS011;57956;53.362;-1.518;2023-10-13T04:17:13;5.40;;;1.00;;
70477;SDS011;57956;53.362;-1.518;2023-10-13T04:19:47;5.57;;;2.00;;
70477;SDS011;57956;53.362;-1.518;2023-10-13T04:22:31;6.07;;;1.10;;
70477;SDS011;57956;53.362;-1.518;2023-10-13T04:25:12;4.30;;;1.00;;
70477;SDS011;57956;53.362;-1.518;2023-10-13T04:27:56;6.13;;;1.10;;
70477;SDS011;57956;53.362;-1.518;2023-10-13T04:33:29;4.90;;;0.90;;
70477;SDS011;57956;53.362;-1.518;2023-10-13T04:36:08;4.87;;;1.37;;
70477;SDS011;57956;53.362;-1.518;2023-10-13T04:38:46;4.95;;;1.95;;
70477;SDS011;57956;53.362;-1.518;2023-10-13T04:44:07;4.72;;;1.38;;
70477;SDS011;57956;53.362;-1.518;2023-10-13T04:46:52;6.63;;;1.58;;
70477;SDS011;57956;53.362;-1.518;2023-10-13T04:49:20;5.17;;;1.33;;
70477;SDS011;57956;53.362;-1.518;2023-10-13T04:52:15;15.93;;;1.67;;
70477;SDS011;57956;53.362;-1.518;2023-10-13T04:55:00;8.38;;;1.10;;
70477;SDS011;57956;53.362;-1.518;2023-10-13T04:57:35;57.07;;;2.53;;
70477;SDS011;57956;53.362;-1.518;2023-10-13T05:00:12;12.63;;;0.93;;
70477;SDS011;57956;53.362;-1.518;2023-10-13T05:02:41;17.43;;;1.57;;
70477;SDS011;57956;53.362;-1.518;2023-10-13T05:05:13;10.45;;;1.30;;
70477;SDS011;57956;53.362;-1.518;2023-10-13T05:07:38;6.68;;;1.25;;
70477;SDS011;57956;53.362;-1.518;2023-10-13T05:10:22;23.52;;;1.35;;
70477;SDS011;57956;53.362;-1.518;2023-10-13T05:13:07;60.50;;;2.17;;
70477;SDS011;57956;53.362;-1.518;2023-10-13T05:15:51;33.23;;;1.53;;
70477;SDS011;57956;53.362;-1.518;2023-10-13T05:18:35;6.05;;;1.30;;
70477;SDS011;57956;53.362;-1.518;2023-10-13T05:21:19;4.35;;;1.05;;
70477;SDS011;57956;53.362;-1.518;2023-10-13T05:24:03;3.42;;;0.50;;
70477;SDS011;57956;53.362;-1.518;2023-10-13T05:26:47;5.13;;;1.30;;
70477;SDS011;57956;53.362;-1.518;2023-10-13T05:29:31;5.73;;;1.60;;
70477;SDS011;57956;53.362;-1.518;2023-10-13T05:32:15;4.13;;;1.20;;
70477;SDS011;57956;53.362;-1.518;2023-10-13T05:34:59;6.45;;;1.42;;
70477;SDS011;57956;53.362;-1.518;2023-10-13T05:37:43;11.60;;;1.42;;
70477;SDS011;57956;53.362;-1.518;2023-10-13T05:40:27;14.68;;;1.67;;
70477;SDS011;57956;53.362;-1.518;2023-10-13T05:43:11;24.43;;;2.10;;
70477;SDS011;57956;53.362;-1.518;2023-10-13T05:46:02;14.30;;;1.10;;
70477;SDS011;57956;53.362;-1.518;2023-10-13T05:48:47;13.90;;;1.92;;
70477;SDS011;57956;53.362;-1.518;2023-10-13T05:51:25;7.30;;;1.00;;
70477;SDS011;57956;53.362;-1.518;2023-10-13T05:54:09;15.30;;;1.20;;
70477;SDS011;57956;53.362;-1.518;2023-10-13T05:59:27;5.93;;;1.10;;
70477;SDS011;57956;53.362;-1.518;2023-10-13T06:02:12;5.00;;;1.42;;
70477;SDS011;57956;53.362;-1.518;2023-10-13T06:04:56;4.20;;;1.05;;
70477;SDS011;57956;53.362;-1.518;2023-10-13T06:07:40;4.05;;;1.00;;
70477;SDS011;57956;53.362;-1.518;2023-10-13T06:10:24;4.00;;;1.00;;
70477;SDS011;57956;53.362;-1.518;2023-10-13T06:13:08;4.63;;;1.25;;
70477;SDS011;57956;53.362;-1.518;2023-10-13T06:15:52;5.40;;;1.20;;
70477;SDS011;57956;53.362;-1.518;2023-10-13T06:18:36;5.47;;;1.05;;
70477;SDS011;57956;53.362;-1.518;2023-10-13T06:21:20;7.72;;;1.17;;
70477;SDS011;57956;53.362;-1.518;2023-10-13T06:24:05;4.30;;;0.97;;
70477;SDS011;57956;53.362;-1.518;2023-10-13T06:26:48;4.97;;;1.35;;
70477;SDS011;57956;53.362;-1.518;2023-10-13T06:29:32;4.25;;;1.13;;
70477;SDS011;57956;53.362;-1.518;2023-10-13T06:31:58;5.53;;;0.90;;
70477;SDS011;57956;53.362;-1.518;2023-10-13T06:34:23;4.40;;;1.25;;
70477;SDS011;57956;53.362;-1.518;2023-10-13T06:37:03;5.17;;;1.00;;
70477;SDS011;57956;53.362;-1.518;2023-10-13T06:39:46;4.82;;;0.85;;
70477;SDS011;57956;53.362;-1.518;2023-10-13T06:42:12;3.43;;;1.13;;
70477;SDS011;57956;53.362;-1.518;2023-10-13T06:44:37;3.67;;;1.27;;
70477;SDS011;57956;53.362;-1.518;2023-10-13T06:47:04;3.90;;;1.10;;
70477;SDS011;57956;53.362;-1.518;2023-10-13T06:49:30;4.15;;;1.08;;
70477;SDS011;57956;53.362;-1.518;2023-10-13T06:51:57;4.43;;;1.03;;
70477;SDS011;57956;53.362;-1.518;2023-10-13T06:54:25;6.45;;;1.50;;
70477;SDS011;57956;53.362;-1.518;2023-10-13T06:56:50;5.00;;;1.33;;
70477;SDS011;57956;53.362;-1.518;2023-10-13T06:59:18;4.78;;;1.20;;
70477;SDS011;57956;53.362;-1.518;2023-10-13T07:01:44;3.53;;;0.90;;
70477;SDS011;57956;53.362;-1.518;2023-10-13T07:04:10;4.73;;;1.37;;
70477;SDS011;57956;53.362;-1.518;2023-10-13T07:06:42;3.35;;;0.70;;
70477;SDS011;57956;53.362;-1.518;2023-10-13T07:09:12;3.33;;;0.90;;
70477;SDS011;57956;53.362;-1.518;2023-10-13T07:12:01;3.83;;;1.00;;
70477;SDS011;57956;53.362;-1.518;2023-10-13T07:14:28;5.72;;;0.85;;
70477;SDS011;57956;53.362;-1.518;2023-10-13T07:16:57;2.70;;;0.57;;
70477;SDS011;57956;53.362;-1.518;2023-10-13T07:19:29;2.95;;;0.60;;
70477;SDS011;57956;53.362;-1.518;2023-10-13T07:21:57;4.60;;;0.70;;
70477;SDS011;57956;53.362;-1.518;2023-10-13T07:24:44;3.45;;;0.70;;
70477;SDS011;57956;53.362;-1.518;2023-10-13T07:27:10;3.63;;;0.80;;
70477;SDS011;57956;53.362;-1.518;2023-10-13T07:29:35;4.68;;;1.25;;
70477;SDS011;57956;53.362;-1.518;2023-10-13T07:32:01;3.80;;;1.13;;
70477;SDS011;57956;53.362;-1.518;2023-10-13T07:34:37;3.88;;;0.60;;
70477;SDS011;57956;53.362;-1.518;2023-10-13T07:37:04;3.60;;;0.60;;
70477;SDS011;57956;53.362;-1.518;2023-10-13T07:39:33;5.55;;;0.60;;
70477;SDS011;57956;53.362;-1.518;2023-10-13T07:42:04;2.90;;;0.50;;
70477;SDS011;57956;53.362;-1.518;2023-10-13T07:44:30;2.55;;;0.40;;
70477;SDS011;57956;53.362;-1.518;2023-10-13T07:46:59;2.42;;;0.50;;
70477;SDS011;57956;53.362;-1.518;2023-10-13T07:49:28;2.50;;;0.40;;
70477;SDS011;57956;53.362;-1.518;2023-10-13T07:52:00;2.75;;;0.50;;
70477;SDS011;57956;53.362;-1.518;2023-10-13T07:54:31;2.97;;;0.50;;
70477;SDS011;57956;53.362;-1.518;2023-10-13T07:56:57;2.50;;;0.37;;
70477;SDS011;57956;53.362;-1.518;2023-10-13T07:59:22;2.07;;;0.40;;
70477;SDS011;57956;53.362;-1.518;2023-10-13T08:01:48;2.80;;;0.60;;
70477;SDS011;57956;53.362;-1.518;2023-10-13T08:04:34;5.00;;;1.00;;
70477;SDS011;57956;53.362;-1.518;2023-10-13T08:07:00;4.60;;;1.40;;
70477;SDS011;57956;53.362;-1.518;2023-10-13T08:09:37;5.45;;;1.60;;
70477;SDS011;57956;53.362;-1.518;2023-10-13T08:12:05;5.80;;;1.85;;
70477;SDS011;57956;53.362;-1.518;2023-10-13T08:14:32;4.15;;;1.65;;
70477;SDS011;57956;53.362;-1.518;2023-10-13T08:16:59;5.45;;;1.58;;
70477;SDS011;57956;53.362;-1.518;2023-10-13T08:19:31;5.80;;;1.57;;
70477;SDS011;57956;53.362;-1.518;2023-10-13T08:22:12;4.38;;;1.10;;
70477;SDS011;57956;53.362;-1.518;2023-10-13T08:24:44;3.60;;;0.90;;
70477;SDS011;57956;53.362;-1.518;2023-10-13T08:27:09;3.07;;;0.50;;
70477;SDS011;57956;53.362;-1.518;2023-10-13T08:29:54;1.83;;;0.30;;
70477;SDS011;57956;53.362;-1.518;2023-10-13T08:32:19;2.03;;;0.30;;
70477;SDS011;57956;53.362;-1.518;2023-10-13T08:34:54;1.92;;;0.30;;
70477;SDS011;57956;53.362;-1.518;2023-10-13T08:37:20;2.90;;;0.60;;
70477;SDS011;57956;53.362;-1.518;2023-10-13T08:45:06;8.02;;;1.98;;
70477;SDS011;57956;53.362;-1.518;2023-10-13T08:47:47;8.70;;;2.10;;
70477;SDS011;57956;53.362;-1.518;2023-10-13T08:50:19;9.63;;;1.95;;
70477;SDS011;57956;53.362;-1.518;2023-10-13T08:53:24;6.93;;;1.43;;
70477;SDS011;57956;53.362;-1.518;2023-10-13T08:58:42;4.20;;;1.35;;
70477;SDS011;57956;53.362;-1.518;2023-10-13T09:01:20;4.80;;;1.30;;
70477;SDS011;57956;53.362;-1.518;2023-10-13T09:04:10;5.03;;;1.25;;
70477;SDS011;57956;53.362;-1.518;2023-10-13T09:06:56;4.13;;;0.90;;
70477;SDS011;57956;53.362;-1.518;2023-10-13T09:09:30;4.57;;;0.95;;
70477;SDS011;57956;53.362;-1.518;2023-10-13T09:12:14;4.45;;;1.25;;
70477;SDS011;57956;53.362;-1.518;2023-10-13T09:14:43;7.82;;;2.33;;
70477;SDS011;57956;53.362;-1.518;2023-10-13T09:17:10;4.20;;;1.25;;
70477;SDS011;57956;53.362;-1.518;2023-10-13T09:19:58;5.53;;;0.73;;
70477;SDS011;57956;53.362;-1.518;2023-10-13T09:22:27;3.47;;;0.73;;
70477;SDS011;57956;53.362;-1.518;2023-10-13T09:24:59;5.65;;;1.10;;
70477;SDS011;57956;53.362;-1.518;2023-10-13T09:27:25;6.65;;;1.30;;
70477;SDS011;57956;53.362;-1.518;2023-10-13T09:30:02;11.27;;;1.97;;
70477;SDS011;57956;53.362;-1.518;2023-10-13T09:32:35;7.70;;;2.53;;
70477;SDS011;57956;53.362;-1.518;2023-10-13T09:35:19;9.75;;;3.38;;
70477;SDS011;57956;53.362;-1.518;2023-10-13T09:37:48;15.52;;;3.30;;
70477;SDS011;57956;53.362;-1.518;2023-10-13T09:40:15;10.18;;;3.33;;
70477;SDS011;57956;53.362;-1.518;2023-10-13T09:42:59;8.80;;;1.80;;
70477;SDS011;57956;53.362;-1.518;2023-10-13T09:45:27;5.75;;;1.90;;
70477;SDS011;57956;53.362;-1.518;2023-10-13T09:47:54;5.25;;;1.27;;
70477;SDS011;57956;53.362;-1.518;2023-10-13T09:50:22;5.97;;;1.13;;
70477;SDS011;57956;53.362;-1.518;2023-10-13T09:52:50;5.38;;;1.13;;
70477;SDS011;57956;53.362;-1.518;2023-10-13T09:57:52;2.90;;;0.40;;
70477;SDS011;57956;53.362;-1.518;2023-10-13T10:00:23;2.60;;;0.60;;
70477;SDS011;57956;53.362;-1.518;2023-10-13T10:03:00;2.97;;;0.80;;
70477;SDS011;57956;53.362;-1.518;2023-10-13T10:05:40;2.78;;;0.55;;
70477;SDS011;57956;53.362;-1.518;2023-10-13T10:08:05;3.00;;;0.47;;
70477;SDS011;57956;53.362;-1.518;2023-10-13T10:10:43;2.17;;;0.40;;
70477;SDS011;57956;53.362;-1.518;2023-10-13T10:13:21;2.00;;;0.30;;
70477;SDS011;57956;53.362;-1.518;2023-10-13T10:15:55;1.95;;;0.30;;
70477;SDS011;57956;53.362;-1.518;2023-10-13T10:18:25;1.80;;;0.40;;
70477;SDS011;57956;53.362;-1.518;2023-10-13T10:20:51;2.25;;;0.73;;
70477;SDS011;57956;53.362;-1.518;2023-10-13T10:23:27;1.58;;;0.30;;
70477;SDS011;57956;53.362;-1.518;2023-10-13T10:25:54;1.60;;;0.20;;
70477;SDS011;57956;53.362;-1.518;2023-10-13T10:28:39;1.98;;;0.32;;
70477;SDS011;57956;53.362;-1.518;2023-10-13T10:31:07;1.70;;;0.20;;
70477;SDS011;57956;53.362;-1.518;2023-10-13T10:33:40;2.15;;;0.40;;
70477;SDS011;57956;53.362;-1.518;2023-10-13T10:36:06;2.10;;;0.20;;
70477;SDS011;57956;53.362;-1.518;2023-10-13T10:38:32;1.90;;;0.30;;
70477;SDS011;57956;53.362;-1.518;2023-10-13T10:41:00;1.63;;;0.20;;
70477;SDS011;57956;53.362;-1.518;2023-10-13T10:43:45;1.58;;;0.20;;
70477;SDS011;57956;53.362;-1.518;2023-10-13T10:46:18;1.57;;;0.27;;
70477;SDS011;57956;53.362;-1.518;2023-10-13T10:48:50;1.88;;;0.30;;
70477;SDS011;57956;53.362;-1.518;2023-10-13T10:51:21;1.58;;;0.20;;
70477;SDS011;57956;53.362;-1.518;2023-10-13T10:53:50;1.53;;;0.23;;
70477;SDS011;57956;53.362;-1.518;2023-10-13T10:56:17;1.33;;;0.20;;
70477;SDS011;57956;53.362;-1.518;2023-10-13T10:58:49;1.90;;;0.28;;
70477;SDS011;57956;53.362;-1.518;2023-10-13T11:01:20;1.48;;;0.20;;
70477;SDS011;57956;53.362;-1.518;2023-10-13T11:06:26;1.30;;;0.20;;
70477;SDS011;57956;53.362;-1.518;2023-10-13T11:09:04;1.55;;;0.20;;
70477;SDS011;57956;53.362;-1.518;2023-10-13T11:11:43;1.27;;;0.20;;
70477;SDS011;57956;53.362;-1.518;2023-10-13T11:17:06;1.33;;;0.30;;
70477;SDS011;57956;53.362;-1.518;2023-10-13T11:19:46;1.20;;;0.20;;
70477;SDS011;57956;53.362;-1.518;2023-10-13T11:24:54;1.25;;;0.20;;
70477;SDS011;57956;53.362;-1.518;2023-10-13T11:27:19;1.60;;;0.20;;
70477;SDS011;57956;53.362;-1.518;2023-10-13T11:30:07;1.40;;;0.20;;
70477;SDS011;57956;53.362;-1.518;2023-10-13T11:32:43;1.30;;;0.20;;
70477;SDS011;57956;53.362;-1.518;2023-10-13T11:35:09;1.33;;;0.20;;
70477;SDS011;57956;53.362;-1.518;2023-10-13T11:37:51;2.25;;;0.30;;
70477;SDS011;57956;53.362;-1.518;2023-10-13T11:40:37;1.13;;;0.13;;
70477;SDS011;57956;53.362;-1.518;2023-10-13T11:43:09;1.52;;;0.30;;
70477;SDS011;57956;53.362;-1.518;2023-10-13T11:45:41;1.27;;;0.20;;
70477;SDS011;57956;53.362;-1.518;2023-10-13T11:48:38;1.70;;;0.30;;
70477;SDS011;57956;53.362;-1.518;2023-10-13T11:51:06;1.65;;;0.30;;
70477;SDS011;57956;53.362;-1.518;2023-10-13T11:53:35;1.67;;;0.20;;
70477;SDS011;57956;53.362;-1.518;2023-10-13T11:56:03;1.90;;;0.30;;
70477;SDS011;57956;53.362;-1.518;2023-10-13T11:58:38;2.05;;;0.40;;
70477;SDS011;57956;53.362;-1.518;2023-10-13T12:01:03;2.20;;;0.40;;
70477;SDS011;57956;53.362;-1.518;2023-10-13T12:03:44;2.30;;;0.60;;
70477;SDS011;57956;53.362;-1.518;2023-10-13T12:06:28;2.80;;;0.40;;
70477;SDS011;57956;53.362;-1.518;2023-10-13T12:09:04;2.50;;;0.50;;
70477;SDS011;57956;53.362;-1.518;2023-10-13T12:11:48;1.60;;;0.30;;
70477;SDS011;57956;53.362;-1.518;2023-10-13T12:14:15;1.90;;;0.30;;
70477;SDS011;57956;53.362;-1.518;2023-10-13T12:16:52;1.58;;;0.20;;
70477;SDS011;57956;53.362;-1.518;2023-10-13T12:19:24;2.40;;;0.40;;
70477;SDS011;57956;53.362;-1.518;2023-10-13T12:21:49;1.20;;;0.10;;
70477;SDS011;57956;53.362;-1.518;2023-10-13T12:24:15;1.50;;;0.17;;
70477;SDS011;57956;53.362;-1.518;2023-10-13T12:26:58;1.77;;;0.15;;
70477;SDS011;57956;53.362;-1.518;2023-10-13T12:29:24;0.90;;;0.10;;
70477;SDS011;57956;53.362;-1.518;2023-10-13T12:31:53;1.20;;;0.10;;
70477;SDS011;57956;53.362;-1.518;2023-10-13T12:34:39;1.40;;;0.20;;
70477;SDS011;57956;53.362;-1.518;2023-10-13T12:37:41;1.33;;;0.20;;
70477;SDS011;57956;53.362;-1.518;2023-10-13T12:42:53;1.60;;;0.30;;
70477;SDS011;57956;53.362;-1.518;2023-10-13T12:45:40;1.17;;;0.20;;
70477;SDS011;57956;53.362;-1.518;2023-10-13T12:48:24;1.03;;;0.20;;
70477;SDS011;57956;53.362;-1.518;2023-10-13T12:51:08;1.48;;;0.20;;
70477;SDS011;57956;53.362;-1.518;2023-10-13T12:53:48;1.40;;;0.20;;
70477;SDS011;57956;53.362;-1.518;2023-10-13T12:56:13;1.42;;;0.20;;
70477;SDS011;57956;53.362;-1.518;2023-10-13T12:58:39;2.17;;;0.30;;
70477;SDS011;57956;53.362;-1.518;2023-10-13T13:01:04;1.80;;;0.20;;
70477;SDS011;57956;53.362;-1.518;2023-10-13T13:03:32;1.27;;;0.20;;
70477;SDS011;57956;53.362;-1.518;2023-10-13T13:05:58;1.17;;;0.10;;
70477;SDS011;57956;53.362;-1.518;2023-10-13T13:08:23;2.30;;;0.30;;
70477;SDS011;57956;53.362;-1.518;2023-10-13T13:10:48;1.40;;;0.10;;
70477;SDS011;57956;53.362;-1.518;2023-10-13T13:13:14;1.50;;;0.27;;
70477;SDS011;57956;53.362;-1.518;2023-10-13T13:15:47;4.80;;;0.40;;
70477;SDS011;57956;53.362;-1.518;2023-10-13T13:18:13;1.77;;;0.20;;
70477;SDS011;57956;53.362;-1.518;2023-10-13T13:20:38;1.90;;;0.20;;
70477;SDS011;57956;53.362;-1.518;2023-10-13T13:23:18;1.45;;;0.25;;
70477;SDS011;57956;53.362;-1.518;2023-10-13T13:25:44;1.60;;;0.30;;
70477;SDS011;57956;53.362;-1.518;2023-10-13T13:28:10;1.10;;;0.20;;
70477;SDS011;57956;53.362;-1.518;2023-10-13T13:30:36;1.07;;;0.13;;
70477;SDS011;57956;53.362;-1.518;2023-10-13T13:33:02;1.38;;;0.25;;
70477;SDS011;57956;53.362;-1.518;2023-10-13T13:35:36;1.42;;;0.20;;
70477;SDS011;57956;53.362;-1.518;2023-10-13T13:38:02;1.27;;;0.20;;
70477;SDS011;57956;53.362;-1.518;2023-10-13T13:40:38;1.10;;;0.13;;
70477;SDS011;57956;53.362;-1.518;2023-10-13T13:43:03;2.00;;;0.22;;
70477;SDS011;57956;53.362;-1.518;2023-10-13T13:45:28;1.80;;;0.20;;
70477;SDS011;57956;53.362;-1.518;2023-10-13T13:47:53;2.37;;;0.50;;
70477;SDS011;57956;53.362;-1.518;2023-10-13T13:50:22;1.88;;;0.30;;
70477;SDS011;57956;53.362;-1.518;2023-10-13T13:52:55;1.40;;;0.20;;
70477;SDS011;57956;53.362;-1.518;2023-10-13T13:55:21;1.45;;;0.20;;
70477;SDS011;57956;53.362;-1.518;2023-10-13T13:57:47;1.75;;;0.20;;
70477;SDS011;57956;53.362;-1.518;2023-10-13T14:00:15;2.53;;;0.30;;
70477;SDS011;57956;53.362;-1.518;2023-10-13T14:02:49;5.05;;;0.47;;
70477;SDS011;57956;53.362;-1.518;2023-10-13T14:05:14;1.73;;;0.30;;
70477;SDS011;57956;53.362;-1.518;2023-10-13T14:07:48;2.17;;;0.30;;
70477;SDS011;57956;53.362;-1.518;2023-10-13T14:10:19;1.50;;;0.30;;
70477;SDS011;57956;53.362;-1.518;2023-10-13T14:13:16;1.98;;;0.30;;
70477;SDS011;57956;53.362;-1.518;2023-10-13T14:15:41;1.73;;;0.20;;
70477;SDS011;57956;53.362;-1.518;2023-10-13T14:18:09;3.13;;;0.30;;
70477;SDS011;57956;53.362;-1.518;2023-10-13T14:20:39;1.97;;;0.30;;
70477;SDS011;57956;53.362;-1.518;2023-10-13T14:23:05;3.00;;;0.30;;
70477;SDS011;57956;53.362;-1.518;2023-10-13T14:25:32;2.30;;;0.20;;
70477;SDS011;57956;53.362;-1.518;2023-10-13T14:28:02;2.03;;;0.20;;
70477;SDS011;57956;53.362;-1.518;2023-10-13T14:30:27;5.22;;;0.30;;
70477;SDS011;57956;53.362;-1.518;2023-10-13T14:32:56;1.80;;;0.20;;
70477;SDS011;57956;53.362;-1.518;2023-10-13T14:35:23;1.88;;;0.20;;
70477;SDS011;57956;53.362;-1.518;2023-10-13T14:37:50;1.35;;;0.30;;
70477;SDS011;57956;53.362;-1.518;2023-10-13T14:40:16;2.60;;;0.40;;
70477;SDS011;57956;53.362;-1.518;2023-10-13T14:42:41;4.23;;;0.30;;
70477;SDS011;57956;53.362;-1.518;2023-10-13T14:45:07;3.58;;;0.40;;
70477;SDS011;57956;53.362;-1.518;2023-10-13T14:47:41;2.15;;;0.30;;
70477;SDS011;57956;53.362;-1.518;2023-10-13T14:50:07;6.33;;;0.40;;
70477;SDS011;57956;53.362;-1.518;2023-10-13T14:52:33;3.47;;;0.65;;
70477;SDS011;57956;53.362;-1.518;2023-10-13T14:54:59;2.20;;;0.30;;
70477;SDS011;57956;53.362;-1.518;2023-10-13T14:57:24;3.67;;;0.33;;
70477;SDS011;57956;53.362;-1.518;2023-10-13T14:59:53;6.57;;;0.70;;
70477;SDS011;57956;53.362;-1.518;2023-10-13T15:02:19;5.18;;;0.47;;
70477;SDS011;57956;53.362;-1.518;2023-10-13T15:04:44;6.00;;;0.37;;
70477;SDS011;57956;53.362;-1.518;2023-10-13T15:07:13;7.35;;;0.40;;
70477;SDS011;57956;53.362;-1.518;2023-10-13T15:09:39;2.92;;;0.20;;
70477;SDS011;57956;53.362;-1.518;2023-10-13T15:12:07;5.57;;;0.40;;
70477;SDS011;57956;53.362;-1.518;2023-10-13T15:14:37;3.85;;;0.30;;
70477;SDS011;57956;53.362;-1.518;2023-10-13T15:17:04;3.03;;;0.40;;
70477;SDS011;57956;53.362;-1.518;2023-10-13T15:19:31;6.55;;;0.47;;
70477;SDS011;57956;53.362;-1.518;2023-10-13T15:22:00;3.38;;;0.40;;
70477;SDS011;57956;53.362;-1.518;2023-10-13T15:24:26;5.87;;;0.37;;
70477;SDS011;57956;53.362;-1.518;2023-10-13T15:26:51;2.50;;;0.43;;
70477;SDS011;57956;53.362;-1.518;2023-10-13T15:29:22;3.73;;;0.30;;
70477;SDS011;57956;53.362;-1.518;2023-10-13T15:31:51;5.72;;;0.60;;
70477;SDS011;57956;53.362;-1.518;2023-10-13T15:34:26;9.13;;;0.40;;
70477;SDS011;57956;53.362;-1.518;2023-10-13T15:36:52;5.18;;;0.57;;
70477;SDS011;57956;53.362;-1.518;2023-10-13T15:39:19;2.55;;;0.38;;